Time;durP1;ratioP1;P1;durP2;ratioP2;P2;SDS_P1;SDS_P2;PMS_P1;PMS_P2;Temp;Humidity;BMP_temperature;BMP_pressure;BME280_temperature;BME280_humidity;BME280_pressure;Samples;Min_cycle;Max_cycle;Signal;HPM_P1;HPM_P2
2024/01/18 00:01:34;;;;;;;45.07;25.13;;;2.30;99.90;;;;;;7286120;19;20697;-78
2024/01/18 00:04:00;;;;;;;44.33;24.90;;;2.30;99.90;;;;;;7284774;19;20190;-77
2024/01/18 00:06:27;;;;;;;41.57;23.60;;;2.30;99.90;;;;;;7307621;19;20214;-78
2024/01/18 00:08:53;;;;;;;46.93;24.83;;;2.40;99.90;;;;;;7284467;19;20190;-77
2024/01/18 00:11:18;;;;;;;50.50;25.97;;;2.30;99.90;;;;;;7285168;19;20202;-79
2024/01/18 00:13:44;;;;;;;42.17;24.67;;;2.30;99.90;;;;;;7285561;19;20194;-78
2024/01/18 00:16:10;;;;;;;48.73;25.03;;;2.40;99.90;;;;;;7286783;19;20230;-78
2024/01/18 00:18:36;;;;;;;47.97;26.20;;;2.60;99.90;;;;;;7282785;19;20217;-79
2024/01/18 00:21:03;;;;;;;47.37;24.63;;;2.70;99.90;;;;;;7283460;19;20193;-78
2024/01/18 00:23:29;;;;;;;48.37;25.57;;;2.70;99.90;;;;;;7294126;19;20256;-77
2024/01/18 00:25:54;;;;;;;48.03;25.40;;;2.80;99.90;;;;;;7299748;19;20389;-78
2024/01/18 00:28:20;;;;;;;45.90;23.73;;;2.80;99.90;;;;;;7283963;19;20596;-78
2024/01/18 00:30:46;;;;;;;46.50;25.30;;;2.80;99.90;;;;;;7281273;19;20200;-78
2024/01/18 00:33:11;;;;;;;39.67;23.77;;;2.80;99.90;;;;;;7281804;19;20190;-79
2024/01/18 00:35:37;;;;;;;41.90;24.13;;;2.80;99.90;;;;;;7283408;19;20647;-78
2024/01/18 00:38:03;;;;;;;43.23;24.83;;;2.80;99.90;;;;;;7281595;19;20189;-78
2024/01/18 00:40:29;;;;;;;47.40;23.87;;;2.80;99.90;;;;;;7293681;19;20556;-78
2024/01/18 00:42:55;;;;;;;43.87;23.13;;;2.90;99.90;;;;;;7300621;19;20201;-78
2024/01/18 00:45:20;;;;;;;43.37;25.17;;;3.10;99.90;;;;;;7282742;19;20189;-79
2024/01/18 00:47:46;;;;;;;45.73;23.50;;;3.00;99.90;;;;;;7280547;19;20297;-78
2024/01/18 00:50:12;;;;;;;47.90;25.63;;;2.70;99.90;;;;;;7280588;19;20199;-78
2024/01/18 00:52:38;;;;;;;43.93;24.33;;;2.70;99.90;;;;;;7282157;19;20196;-79
2024/01/18 00:55:04;;;;;;;50.07;25.80;;;2.80;99.90;;;;;;7282377;19;20191;-78
2024/01/18 00:57:29;;;;;;;48.97;24.90;;;2.90;99.90;;;;;;7282740;19;20192;-78
2024/01/18 00:59:55;;;;;;;45.30;25.53;;;3.00;99.90;;;;;;7303505;19;20182;-79
2024/01/18 01:02:21;;;;;;;49.97;25.70;;;3.00;99.90;;;;;;7279063;19;20848;-79
2024/01/18 01:04:47;;;;;;;51.53;25.87;;;3.10;99.90;;;;;;7282910;19;20546;-79
2024/01/18 01:07:12;;;;;;;46.13;24.07;;;3.10;99.90;;;;;;7277456;19;20191;-79
2024/01/18 01:09:38;;;;;;;42.37;24.07;;;3.10;99.90;;;;;;7280318;19;20194;-79
2024/01/18 01:12:04;;;;;;;45.70;24.03;;;3.10;99.90;;;;;;7281196;19;20235;-79
2024/01/18 01:14:30;;;;;;;46.70;24.00;;;3.10;99.90;;;;;;7282713;19;20624;-78
2024/01/18 01:16:55;;;;;;;44.63;24.10;;;3.10;99.90;;;;;;7303831;19;20677;-79
2024/01/18 01:19:21;;;;;;;44.87;24.43;;;3.10;99.90;;;;;;7283573;19;20566;-79
2024/01/18 01:21:47;;;;;;;45.27;25.47;;;3.10;99.90;;;;;;7283210;19;20518;-79
2024/01/18 01:24:13;;;;;;;44.93;25.37;;;3.10;99.90;;;;;;7282878;19;20181;-79
2024/01/18 01:26:38;;;;;;;51.10;25.77;;;3.10;99.90;;;;;;7282873;19;20194;-78
2024/01/18 01:29:05;;;;;;;53.17;25.40;;;3.10;99.90;;;;;;7281314;19;20656;-79
2024/01/18 01:31:31;;;;;;;47.47;24.83;;;3.10;99.90;;;;;;7279717;19;20647;-78
2024/01/18 01:33:56;;;;;;;45.60;25.10;;;3.00;99.90;;;;;;7304108;19;20189;-79
2024/01/18 01:36:22;;;;;;;48.17;24.27;;;3.10;99.90;;;;;;7278936;19;20189;-78
2024/01/18 01:38:48;;;;;;;48.70;25.63;;;3.00;99.90;;;;;;7281172;19;20208;-79
2024/01/18 01:41:14;;;;;;;51.10;26.13;;;2.90;99.90;;;;;;7281417;19;20192;-79
2024/01/18 01:43:58;;;;;;;50.00;25.03;;;2.90;99.90;;;;;;7281034;19;20693;-79
2024/01/18 01:46:25;;;;;;;49.53;25.00;;;2.90;99.90;;;;;;7281749;19;20214;-79
2024/01/18 01:48:59;;;;;;;46.37;25.47;;;2.90;99.90;;;;;;7279421;19;20189;-78
2024/01/18 01:51:25;;;;;;;45.70;24.57;;;2.80;99.90;;;;;;7280887;19;20197;-79
2024/01/18 01:53:53;;;;;;;45.73;24.03;;;2.80;99.90;;;;;;7282651;19;20579;-79
2024/01/18 01:56:20;;;;;;;39.00;21.63;;;2.70;99.90;;;;;;7280914;19;20208;-79
2024/01/18 01:58:48;;;;;;;40.33;21.77;;;2.70;99.90;;;;;;7278603;19;20193;-78
2024/01/18 02:01:13;;;;;;;39.27;20.00;;;2.70;99.90;;;;;;7280863;19;20236;-79
2024/01/18 02:03:39;;;;;;;39.27;20.47;;;2.60;99.90;;;;;;7279234;19;20190;-78
2024/01/18 02:06:05;;;;;;;39.27;20.23;;;2.60;99.90;;;;;;7279873;19;20274;-78
2024/01/18 02:08:31;;;;;;;37.33;19.20;;;2.50;99.90;;;;;;7281249;19;20738;-79
2024/01/18 02:10:58;;;;;;;37.30;18.97;;;2.50;99.90;;;;;;7299598;19;20285;-79
2024/01/18 02:13:25;;;;;;;34.40;18.23;;;2.50;99.90;;;;;;7286183;19;20192;-78
2024/01/18 02:15:51;;;;;;;34.53;18.27;;;2.60;99.90;;;;;;7282582;19;20261;-79
2024/01/18 02:18:16;;;;;;;37.47;18.17;;;2.50;99.90;;;;;;7285044;19;20646;-78
2024/01/18 02:20:42;;;;;;;32.80;18.10;;;2.50;99.90;;;;;;7286417;19;20211;-78
2024/01/18 02:23:10;;;;;;;37.10;19.23;;;2.50;99.90;;;;;;7287887;19;20180;-78
2024/01/18 02:25:36;;;;;;;35.27;18.57;;;2.50;99.90;;;;;;7287016;19;20619;-78
2024/01/18 02:28:02;;;;;;;39.63;19.23;;;2.50;99.90;;;;;;7287907;19;20183;-77
2024/01/18 02:30:28;;;;;;;33.87;18.27;;;2.50;99.90;;;;;;7307605;19;20219;-77
2024/01/18 02:32:54;;;;;;;34.93;18.53;;;2.40;99.90;;;;;;7297436;19;20196;-78
2024/01/18 02:35:20;;;;;;;34.23;18.43;;;2.30;99.90;;;;;;7288161;19;20188;-79
2024/01/18 02:37:46;;;;;;;36.83;18.80;;;2.10;99.90;;;;;;7287085;19;20547;-79
2024/01/18 02:40:12;;;;;;;33.27;18.30;;;2.00;99.90;;;;;;7288366;19;20191;-78
2024/01/18 02:42:38;;;;;;;34.87;18.93;;;2.10;99.90;;;;;;7287210;19;20194;-78
2024/01/18 02:45:05;;;;;;;38.97;21.13;;;2.20;99.90;;;;;;7287830;19;20188;-78
2024/01/18 02:47:31;;;;;;;36.00;19.03;;;2.30;99.90;;;;;;7284663;19;20190;-77
2024/01/18 02:49:57;;;;;;;35.30;18.67;;;2.30;99.90;;;;;;7296109;19;20639;-78
2024/01/18 02:52:23;;;;;;;34.10;18.87;;;2.30;99.90;;;;;;7285835;19;20201;-78
2024/01/18 02:54:48;;;;;;;36.53;19.67;;;2.40;99.90;;;;;;7283259;19;20216;-78
2024/01/18 02:57:14;;;;;;;34.07;18.67;;;2.40;99.90;;;;;;7281594;19;20200;-78
2024/01/18 02:59:40;;;;;;;32.43;18.57;;;2.30;99.90;;;;;;7284300;19;20186;-78
2024/01/18 03:02:06;;;;;;;37.13;19.03;;;2.30;99.90;;;;;;7289970;19;20194;-79
2024/01/18 03:04:32;;;;;;;36.03;19.07;;;2.40;99.90;;;;;;7285879;19;20196;-77
2024/01/18 03:06:57;;;;;;;35.03;19.47;;;2.50;99.90;;;;;;7305986;19;20698;-78
2024/01/18 03:09:23;;;;;;;32.67;18.87;;;2.60;99.90;;;;;;7286776;19;20202;-78
2024/01/18 03:11:49;;;;;;;36.20;19.57;;;2.60;99.90;;;;;;7287432;19;20192;-78
2024/01/18 03:14:15;;;;;;;33.90;18.93;;;2.60;99.90;;;;;;7288903;19;20193;-78
2024/01/18 03:16:43;;;;;;;38.23;20.17;;;2.70;99.90;;;;;;7283912;19;20195;-79
2024/01/18 03:19:13;;;;;;;42.33;20.53;;;2.70;99.90;;;;;;7285308;19;20200;-78
2024/01/18 03:21:39;;;;;;;41.30;20.20;;;2.80;99.90;;;;;;7285108;19;20716;-77
2024/01/18 03:24:06;;;;;;;39.77;19.57;;;2.70;99.90;;;;;;7283036;19;20206;-78
2024/01/18 03:26:32;;;;;;;40.90;19.90;;;2.70;99.90;;;;;;7285881;19;20204;-77
2024/01/18 03:28:58;;;;;;;40.43;20.53;;;2.70;99.90;;;;;;7308240;19;20283;-78
2024/01/18 03:31:24;;;;;;;42.37;21.13;;;2.70;99.90;;;;;;7286261;19;20193;-78
2024/01/18 03:33:49;;;;;;;42.03;20.63;;;2.70;99.90;;;;;;7284051;19;20209;-77
2024/01/18 03:36:15;;;;;;;47.13;20.97;;;2.70;99.90;;;;;;7285123;19;20193;-78
2024/01/18 03:38:41;;;;;;;38.53;20.50;;;2.80;99.90;;;;;;7286298;19;20525;-77
2024/01/18 03:41:07;;;;;;;39.57;20.80;;;2.70;99.90;;;;;;7285670;19;20195;-77
2024/01/18 03:43:33;;;;;;;38.03;19.77;;;2.60;99.90;;;;;;7286835;19;20189;-78
2024/01/18 03:45:58;;;;;;;36.47;20.30;;;2.50;99.90;;;;;;7308093;19;20561;-76
2024/01/18 03:48:24;;;;;;;35.07;19.40;;;2.40;99.90;;;;;;7293919;19;20215;-78
2024/01/18 03:50:50;;;;;;;37.37;20.60;;;2.40;99.90;;;;;;7286618;19;20183;-78
2024/01/18 03:53:16;;;;;;;38.33;20.63;;;2.30;99.90;;;;;;7285235;19;20252;-78
2024/01/18 03:55:42;;;;;;;40.57;20.57;;;2.30;99.90;;;;;;7284809;19;20182;-78
2024/01/18 03:58:08;;;;;;;42.77;21.73;;;2.20;99.90;;;;;;7286649;19;20554;-78
2024/01/18 04:00:34;;;;;;;39.33;20.27;;;2.30;99.90;;;;;;7285859;19;20649;-78
2024/01/18 04:03:00;;;;;;;37.27;20.87;;;2.40;99.90;;;;;;7290130;19;20189;-78
2024/01/18 04:05:26;;;;;;;40.27;20.63;;;2.50;99.90;;;;;;7306791;19;20185;-78
2024/01/18 04:07:52;;;;;;;38.33;20.70;;;2.50;99.90;;;;;;7286125;19;20185;-78
2024/01/18 04:10:17;;;;;;;38.37;21.27;;;2.50;99.90;;;;;;7285477;19;20177;-78
2024/01/18 04:12:44;;;;;;;39.70;21.90;;;2.50;99.90;;;;;;7286994;19;20657;-79
2024/01/18 04:15:10;;;;;;;37.33;19.47;;;2.50;99.90;;;;;;7286725;19;20195;-78
2024/01/18 04:17:37;;;;;;;34.60;19.43;;;2.40;99.90;;;;;;7286182;19;20188;-78
2024/01/18 04:20:05;;;;;;;39.87;20.50;;;2.40;99.90;;;;;;7285309;19;20200;-78
2024/01/18 04:22:32;;;;;;;37.27;20.53;;;2.40;99.90;;;;;;7284644;19;20308;-78
2024/01/18 04:24:58;;;;;;;36.37;20.33;;;2.40;99.90;;;;;;7306976;19;20199;-78
2024/01/18 04:27:23;;;;;;;39.63;21.00;;;2.40;99.90;;;;;;7287378;19;20181;-77
2024/01/18 04:29:49;;;;;;;39.90;20.67;;;2.40;99.90;;;;;;7285251;19;20175;-77
2024/01/18 04:32:15;;;;;;;36.63;19.90;;;2.30;99.90;;;;;;7284078;19;20219;-77
2024/01/18 04:34:42;;;;;;;40.37;20.57;;;2.30;99.90;;;;;;7284827;19;20184;-78
2024/01/18 04:37:08;;;;;;;43.27;20.60;;;2.40;99.90;;;;;;7283623;19;20184;-78
2024/01/18 04:39:34;;;;;;;39.43;21.37;;;2.50;99.90;;;;;;7282379;19;20210;-77
2024/01/18 04:41:59;;;;;;;40.40;21.63;;;2.50;99.90;;;;;;7292604;19;20194;-78
2024/01/18 04:44:25;;;;;;;38.83;20.60;;;2.40;99.90;;;;;;7302551;19;20192;-78
2024/01/18 04:46:51;;;;;;;42.50;20.40;;;2.50;99.90;;;;;;7285921;19;20657;-78
2024/01/18 04:49:17;;;;;;;46.53;21.97;;;2.40;99.90;;;;;;7282796;19;20185;-78
2024/01/18 04:51:42;;;;;;;52.20;22.27;;;2.50;99.90;;;;;;7284723;19;20206;-79
2024/01/18 04:54:09;;;;;;;52.30;22.47;;;2.50;99.90;;;;;;7284247;19;20196;-78
2024/01/18 04:56:38;;;;;;;49.80;22.77;;;2.50;99.90;;;;;;7283153;19;20210;-79
2024/01/18 04:59:04;;;;;;;52.37;22.80;;;2.50;99.90;;;;;;7283207;19;20861;-78
2024/01/18 05:01:30;;;;;;;43.13;21.07;;;2.30;99.90;;;;;;7290811;19;20183;-76
2024/01/18 05:03:56;;;;;;;47.03;21.57;;;2.30;99.90;;;;;;7306173;19;20186;-77
2024/01/18 05:06:22;;;;;;;55.73;21.80;;;2.10;99.90;;;;;;7284284;19;20212;-79
2024/01/18 05:08:47;;;;;;;47.20;22.00;;;2.10;99.90;;;;;;7283499;19;20713;-78
2024/01/18 05:11:13;;;;;;;53.67;22.13;;;2.00;99.90;;;;;;7282472;19;20205;-78
2024/01/18 05:13:39;;;;;;;55.77;23.00;;;2.10;99.90;;;;;;7283249;19;20540;-78
2024/01/18 05:16:06;;;;;;;44.20;22.37;;;2.30;99.90;;;;;;7284718;19;20249;-77
2024/01/18 05:18:31;;;;;;;51.70;22.47;;;2.50;99.90;;;;;;7281748;19;20185;-78
2024/01/18 05:20:57;;;;;;;47.07;21.60;;;2.50;99.90;;;;;;7305696;19;20193;-78
2024/01/18 05:23:23;;;;;;;41.83;21.57;;;2.40;99.90;;;;;;7281814;19;20194;-78
2024/01/18 05:25:48;;;;;;;44.67;21.07;;;2.30;99.90;;;;;;7281896;19;21809;-77
2024/01/18 05:28:14;;;;;;;45.17;21.00;;;2.20;99.90;;;;;;7282353;19;20186;-78
2024/01/18 05:30:40;;;;;;;44.90;21.70;;;2.10;99.90;;;;;;7279408;19;20191;-77
2024/01/18 05:33:06;;;;;;;47.33;21.53;;;2.10;99.90;;;;;;7280965;19;20189;-79
2024/01/18 05:35:31;;;;;;;44.20;20.30;;;2.00;99.90;;;;;;7283865;19;20202;-79
2024/01/18 05:37:57;;;;;;;51.20;21.20;;;2.00;99.90;;;;;;7302958;19;20194;-79
2024/01/18 05:40:22;;;;;;;46.90;21.07;;;1.90;99.90;;;;;;7281111;19;20260;-78
2024/01/18 05:42:48;;;;;;;46.83;20.80;;;1.80;99.90;;;;;;7281316;19;26426;-78
2024/01/18 05:45:14;;;;;;;48.90;22.63;;;1.80;99.90;;;;;;7281322;19;20193;-78
2024/01/18 05:47:40;;;;;;;49.60;22.33;;;1.80;99.90;;;;;;7284233;19;20189;-79
2024/01/18 05:50:07;;;;;;;54.23;24.23;;;1.90;99.90;;;;;;7282753;19;20193;-78
2024/01/18 05:52:33;;;;;;;48.33;22.00;;;1.90;99.90;;;;;;7282829;19;20193;-79
2024/01/18 05:54:58;;;;;;;44.20;20.93;;;1.70;99.90;;;;;;7305489;19;20556;-78
2024/01/18 05:57:25;;;;;;;45.07;21.40;;;1.40;99.90;;;;;;7285440;19;20187;-78
2024/01/18 05:59:50;;;;;;;39.43;21.10;;;1.00;99.90;;;;;;7283124;19;20190;-78
2024/01/18 06:02:16;;;;;;;53.53;22.00;;;0.80;99.90;;;;;;7283136;19;20193;-78
2024/01/18 06:04:42;;;;;;;49.63;22.37;;;0.80;99.90;;;;;;7281089;19;20193;-78
2024/01/18 06:07:07;;;;;;;49.10;22.17;;;0.90;99.90;;;;;;7281128;19;20208;-77
2024/01/18 06:09:33;;;;;;;62.80;24.07;;;0.90;99.90;;;;;;7281756;19;20631;-79
2024/01/18 06:11:59;;;;;;;64.63;25.83;;;1.00;99.90;;;;;;7301804;19;20268;-77
2024/01/18 06:14:24;;;;;;;59.87;24.63;;;1.00;99.90;;;;;;7290569;19;20700;-79
2024/01/18 06:16:50;;;;;;;54.53;25.47;;;1.00;99.90;;;;;;7282188;19;20191;-77
2024/01/18 06:19:16;;;;;;;56.57;25.57;;;0.90;99.90;;;;;;7282923;19;20189;-80
2024/01/18 06:21:41;;;;;;;56.17;24.53;;;0.70;99.90;;;;;;7281877;19;20738;-79
2024/01/18 06:24:07;;;;;;;57.47;25.67;;;0.70;99.90;;;;;;7282207;19;20238;-79
2024/01/18 06:26:33;;;;;;;51.23;25.17;;;0.70;99.90;;;;;;7282188;19;20192;-78
2024/01/18 06:28:59;;;;;;;72.47;25.70;;;0.70;99.90;;;;;;7303483;19;20188;-79
2024/01/18 06:31:27;;;;;;;51.10;24.13;;;0.50;99.90;;;;;;7283328;19;20187;-78
2024/01/18 06:33:59;;;;;;;48.93;24.60;;;0.40;99.90;;;;;;7280715;19;20695;-78
2024/01/18 06:36:25;;;;;;;53.60;24.67;;;0.40;99.90;;;;;;7281569;19;20181;-78
2024/01/18 06:38:50;;;;;;;54.00;24.60;;;0.40;99.90;;;;;;7281849;19;20174;-79
2024/01/18 06:41:17;;;;;;;50.07;23.07;;;0.40;99.90;;;;;;7280511;19;20189;-79
2024/01/18 06:43:42;;;;;;;50.90;24.10;;;0.40;99.90;;;;;;7280923;19;20185;-79
2024/01/18 06:46:16;;;;;;;48.97;22.57;;;0.40;99.90;;;;;;7280304;19;20740;-79
2024/01/18 06:48:42;;;;;;;46.47;22.33;;;0.30;99.90;;;;;;7279701;19;20977;-79
2024/01/18 06:51:08;;;;;;;46.37;22.50;;;0.30;99.90;;;;;;7279688;19;20187;-79
2024/01/18 06:53:34;;;;;;;42.73;21.73;;;0.20;99.90;;;;;;7281165;19;20593;-79
2024/01/18 06:56:01;;;;;;;44.10;21.47;;;0.10;99.90;;;;;;7290988;19;20181;-77
2024/01/18 06:58:26;;;;;;;45.97;21.67;;;0.10;99.90;;;;;;7306035;19;20591;-79
2024/01/18 07:00:52;;;;;;;43.03;22.57;;;0.10;99.90;;;;;;7287762;19;20183;-79
2024/01/18 07:03:18;;;;;;;46.00;22.67;;;0.10;99.90;;;;;;7287099;19;20189;-78
2024/01/18 07:05:44;;;;;;;44.40;23.07;;;0.00;99.90;;;;;;7283147;19;20217;-79
2024/01/18 07:08:10;;;;;;;53.17;25.37;;;-0.10;99.90;;;;;;7285050;19;20193;-78
2024/01/18 07:10:36;;;;;;;41.90;22.60;;;-0.20;99.90;;;;;;7288132;19;20189;-78
2024/01/18 07:13:02;;;;;;;51.13;22.93;;;-0.20;99.90;;;;;;7286228;19;20221;-78
2024/01/18 07:15:28;;;;;;;43.83;22.83;;;-0.40;99.90;;;;;;7308141;19;20273;-79
2024/01/18 07:17:54;;;;;;;51.27;23.83;;;-0.40;99.90;;;;;;7284490;19;20259;-78
2024/01/18 07:20:19;;;;;;;44.20;22.67;;;-0.50;99.90;;;;;;7285164;19;20205;-78
2024/01/18 07:22:45;;;;;;;41.40;22.70;;;-0.60;99.90;;;;;;7286287;19;20616;-79
2024/01/18 07:25:12;;;;;;;45.30;22.43;;;-0.70;99.90;;;;;;7283527;19;20200;-78
2024/01/18 07:27:38;;;;;;;44.27;22.93;;;-0.80;99.90;;;;;;7284755;19;20197;-79
2024/01/18 07:30:06;;;;;;;43.17;22.57;;;-0.90;99.90;;;;;;7285452;19;20207;-77
2024/01/18 07:32:33;;;;;;;45.27;23.33;;;-0.80;99.90;;;;;;7285816;19;20195;-77
2024/01/18 07:35:00;;;;;;;43.03;21.27;;;-0.70;99.90;;;;;;7309149;19;20679;-78
2024/01/18 07:37:26;;;;;;;44.77;23.40;;;-0.60;99.90;;;;;;7284297;19;20669;-78
2024/01/18 07:39:51;;;;;;;41.97;22.23;;;-0.60;99.90;;;;;;7284358;19;20189;-77
2024/01/18 07:42:17;;;;;;;44.27;22.57;;;-0.50;99.90;;;;;;7284649;19;20648;-77
2024/01/18 07:44:46;;;;;;;45.13;23.13;;;-0.50;99.90;;;;;;7285339;19;20543;-78
2024/01/18 07:47:12;;;;;;;44.13;21.47;;;-0.80;99.90;;;;;;7285520;19;20193;-77
2024/01/18 07:49:42;;;;;;;42.73;22.07;;;-0.90;99.90;;;;;;7285722;19;20192;-78
2024/01/18 07:52:08;;;;;;;41.53;21.53;;;-1.00;99.90;;;;;;7285106;19;20221;-79
2024/01/18 07:54:34;;;;;;;41.73;22.33;;;-1.20;99.90;;;;;;7285948;19;20185;-79
2024/01/18 07:57:00;;;;;;;40.50;21.07;;;-1.30;99.90;;;;;;7299574;19;20658;-78
2024/01/18 07:59:25;;;;;;;43.93;22.57;;;-1.30;99.90;;;;;;7297257;19;20180;-79
2024/01/18 08:01:51;;;;;;;43.43;22.23;;;-1.30;99.90;;;;;;7285585;19;20862;-79
2024/01/18 08:04:17;;;;;;;94.47;42.97;;;-1.20;99.90;;;;;;7285776;19;20202;-79
2024/01/18 08:06:42;;;;;;;108.20;43.73;;;-1.20;99.90;;;;;;7285075;19;20188;-79
2024/01/18 08:09:11;;;;;;;162.53;66.53;;;-1.10;99.90;;;;;;7284619;19;20311;-79
2024/01/18 08:11:37;;;;;;;67.40;31.27;;;-1.00;99.90;;;;;;7285124;19;20248;-79
2024/01/18 08:14:03;;;;;;;45.17;23.50;;;-1.00;99.90;;;;;;7285091;19;20632;-79
2024/01/18 08:16:28;;;;;;;52.30;23.50;;;-1.10;99.90;;;;;;7307222;19;20228;-79
2024/01/18 08:18:55;;;;;;;55.17;27.13;;;-1.30;99.90;;;;;;7284604;19;20228;-79
2024/01/18 08:21:21;;;;;;;70.87;35.47;;;-1.50;99.90;;;;;;7285693;19;20178;-79
2024/01/18 08:23:47;;;;;;;56.57;26.73;;;-1.60;99.90;;;;;;7284273;19;20193;-79
2024/01/18 08:26:14;;;;;;;50.63;24.73;;;-1.70;99.90;;;;;;7285745;19;20193;-79
2024/01/18 08:28:40;;;;;;;49.07;25.43;;;-1.60;99.90;;;;;;7285309;19;20461;-79
2024/01/18 08:31:06;;;;;;;50.67;26.87;;;-1.60;99.90;;;;;;7285843;19;20276;-79
2024/01/18 08:33:35;;;;;;;58.40;30.00;;;-1.80;99.90;;;;;;7286037;19;20681;-78
2024/01/18 08:36:00;;;;;;;53.63;28.17;;;-1.70;99.90;;;;;;7293786;19;20189;-78
2024/01/18 08:38:26;;;;;;;56.70;28.77;;;-1.60;99.90;;;;;;7304076;19;20649;-79
2024/01/18 08:40:52;;;;;;;51.60;27.03;;;-1.40;99.90;;;;;;7285395;19;20215;-79
2024/01/18 08:43:22;;;;;;;47.70;25.53;;;-1.30;99.90;;;;;;7283460;19;20344;-79
2024/01/18 08:45:48;;;;;;;49.13;26.27;;;-1.10;99.90;;;;;;7284507;19;20738;-79
2024/01/18 08:48:14;;;;;;;596.97;345.27;;;-1.20;99.90;;;;;;7285048;19;20189;-79
2024/01/18 08:50:40;;;;;;;45.40;26.70;;;-1.20;99.90;;;;;;7283746;19;20203;-79
2024/01/18 08:53:06;;;;;;;44.23;24.40;;;-1.00;99.90;;;;;;7283070;19;20193;-79
2024/01/18 08:55:32;;;;;;;49.77;26.73;;;-1.10;99.90;;;;;;7285183;19;20683;-78
2024/01/18 08:57:58;;;;;;;54.20;27.13;;;-1.20;99.90;;;;;;7306393;19;20271;-77
2024/01/18 09:00:23;;;;;;;47.47;25.50;;;-1.20;99.90;;;;;;7283666;19;20656;-79
2024/01/18 09:02:49;;;;;;;52.27;26.23;;;-1.10;99.90;;;;;;7283966;19;20206;-78
2024/01/18 09:05:15;;;;;;;48.90;25.17;;;-1.10;99.90;;;;;;7283753;19;20198;-79
2024/01/18 09:07:41;;;;;;;48.70;25.87;;;-1.10;99.90;;;;;;7282072;19;20213;-78
2024/01/18 09:10:08;;;;;;;53.20;25.97;;;-1.00;99.90;;;;;;7282978;19;20184;-78
2024/01/18 09:12:34;;;;;;;51.00;25.50;;;-1.00;99.90;;;;;;7283126;19;20193;-78
2024/01/18 09:15:01;;;;;;;51.27;26.13;;;-0.80;99.90;;;;;;7290969;19;20193;-78
2024/01/18 09:17:26;;;;;;;54.93;27.37;;;-0.90;99.90;;;;;;7300444;19;20655;-78
2024/01/18 09:19:52;;;;;;;49.33;26.60;;;-0.80;99.90;;;;;;7280966;19;20193;-78
2024/01/18 09:22:18;;;;;;;54.73;27.17;;;-0.70;99.90;;;;;;7282899;19;20252;-79
2024/01/18 09:24:44;;;;;;;54.00;26.17;;;-0.50;99.90;;;;;;7282345;19;20196;-78
2024/01/18 09:27:11;;;;;;;54.30;25.73;;;-0.40;99.90;;;;;;7283653;19;20192;-78
2024/01/18 09:29:37;;;;;;;48.20;24.57;;;-0.30;99.90;;;;;;7282403;19;20188;-78
2024/01/18 09:32:06;;;;;;;50.13;26.37;;;-0.20;99.90;;;;;;7282274;19;20660;-77
2024/01/18 09:34:34;;;;;;;50.27;26.70;;;0.00;99.90;;;;;;7285988;19;20181;-78
2024/01/18 09:37:00;;;;;;;51.63;27.63;;;0.10;99.90;;;;;;7299122;19;20672;-78
2024/01/18 09:39:26;;;;;;;50.43;28.43;;;0.20;99.90;;;;;;7296041;19;20185;-79
2024/01/18 09:41:55;;;;;;;60.47;31.30;;;0.30;99.90;;;;;;7282755;19;20185;-79
2024/01/18 09:44:30;;;;;;;53.73;29.10;;;0.50;99.90;;;;;;7283744;19;20181;-78
2024/01/18 09:46:57;;;;;;;60.13;30.53;;;0.50;99.90;;;;;;7282330;19;20230;-79
2024/01/18 09:49:25;;;;;;;55.43;29.70;;;0.50;99.90;;;;;;7281123;19;20189;-79
2024/01/18 09:51:51;;;;;;;85.47;39.77;;;0.50;99.90;;;;;;7283418;19;20210;-78
2024/01/18 09:54:18;;;;;;;171.47;68.73;;;0.60;99.90;;;;;;7281929;19;20181;-79
2024/01/18 09:56:45;;;;;;;75.10;35.97;;;0.60;99.90;;;;;;7279705;19;20184;-79
2024/01/18 09:59:18;;;;;;;87.43;42.23;;;0.60;99.90;;;;;;7282655;19;20549;-79
2024/01/18 10:01:44;;;;;;;71.43;35.43;;;0.70;99.90;;;;;;7283445;19;20211;-77
2024/01/18 10:04:12;;;;;;;61.67;31.43;;;0.90;99.90;;;;;;7282557;19;20204;-78
2024/01/18 10:06:38;;;;;;;65.23;33.27;;;1.00;99.90;;;;;;7279349;19;20185;-77
2024/01/18 10:09:11;;;;;;;59.73;29.00;;;1.10;99.90;;;;;;7281697;19;20510;-78
2024/01/18 10:11:44;;;;;;;57.73;30.07;;;1.20;99.90;;;;;;7282041;19;20185;-78
2024/01/18 10:14:10;;;;;;;60.43;28.77;;;1.40;99.90;;;;;;7282716;19;20185;-79
2024/01/18 10:16:38;;;;;;;61.33;28.43;;;1.50;99.90;;;;;;7280711;19;20191;-79
2024/01/18 10:19:05;;;;;;;53.87;27.17;;;1.60;99.90;;;;;;7280738;19;20193;-79
2024/01/18 10:21:33;;;;;;;50.93;25.67;;;1.80;99.90;;;;;;7292736;19;20189;-79
2024/01/18 10:24:00;;;;;;;46.90;24.53;;;2.00;99.90;;;;;;7303503;19;20190;-78
2024/01/18 10:26:33;;;;;;;43.97;23.47;;;2.40;99.90;;;;;;7282685;19;20199;-79
2024/01/18 10:28:59;;;;;;;41.47;21.83;;;3.70;99.90;;;;;;7284159;19;20197;-78
2024/01/18 10:31:25;;;;;;;42.53;22.63;;;5.40;99.90;;;;;;7281205;19;20208;-79
2024/01/18 10:33:51;;;;;;;48.43;25.00;;;6.70;99.90;;;;;;7288993;19;20185;-79
2024/01/18 10:36:18;;;;;;;34.63;20.23;;;8.10;99.90;;;;;;7285460;19;20204;-79
2024/01/18 10:38:44;;;;;;;39.43;24.00;;;9.20;99.90;;;;;;7285408;19;20220;-79
2024/01/18 10:41:10;;;;;;;35.97;22.33;;;10.10;99.90;;;;;;7287705;19;20191;-78
2024/01/18 10:43:37;;;;;;;30.00;17.73;;;10.80;99.90;;;;;;7288016;19;20188;-79
2024/01/18 10:46:04;;;;;;;26.17;15.40;;;11.50;99.90;;;;;;7287689;19;20617;-79
2024/01/18 10:48:31;;;;;;;25.57;15.70;;;12.00;99.90;;;;;;7309163;19;20195;-78
2024/01/18 10:50:57;;;;;;;24.10;13.90;;;12.40;99.90;;;;;;7304322;19;20193;-79
2024/01/18 10:53:33;;;;;;;23.17;14.87;;;12.80;99.90;;;;;;7287229;19;20227;-79
2024/01/18 10:55:59;;;;;;;23.00;14.07;;;13.40;99.90;;;;;;7287326;19;20649;-78
2024/01/18 10:58:25;;;;;;;22.93;14.93;;;13.90;99.90;;;;;;7288049;19;20197;-79
2024/01/18 11:00:52;;;;;;;23.93;13.17;;;14.30;99.90;;;;;;7286018;19;20605;-79
2024/01/18 11:03:18;;;;;;;21.83;12.87;;;14.70;99.90;;;;;;7286233;19;20198;-80
2024/01/18 11:05:46;;;;;;;22.10;13.27;;;14.80;99.90;;;;;;7285813;19;20192;-80
2024/01/18 11:08:13;;;;;;;27.73;14.90;;;15.30;99.90;;;;;;7286435;19;21033;-79
2024/01/18 11:10:40;;;;;;;21.27;13.27;;;15.60;99.90;;;;;;7287395;19;20589;-79
2024/01/18 11:13:07;;;;;;;18.97;12.77;;;15.90;99.90;;;;;;7287020;19;20292;-79
2024/01/18 11:15:34;;;;;;;23.23;15.03;;;16.20;99.90;;;;;;7285461;19;20196;-78
2024/01/18 11:18:10;;;;;;;23.33;15.33;;;16.20;98.70;;;;;;7309101;19;20189;-79
2024/01/18 11:20:58;;;;;;;31.17;17.67;;;15.90;98.30;;;;;;7182045;19;2004632;-79
2024/01/18 11:23:38;;;;;;;33.23;21.13;;;16.20;96.80;;;;;;7286606;19;20281;-80
2024/01/18 11:26:06;;;;;;;26.03;16.40;;;16.60;97.00;;;;;;7265735;19;20208;-79
2024/01/18 11:28:32;;;;;;;33.33;21.50;;;17.10;96.00;;;;;;7294683;19;20213;-79
2024/01/18 11:30:59;;;;;;;23.00;14.27;;;17.40;94.70;;;;;;7309257;19;20291;-80
2024/01/18 11:33:25;;;;;;;22.90;14.57;;;17.50;93.80;;;;;;7286584;19;20267;-80
2024/01/18 11:35:52;;;;;;;21.90;15.00;;;17.60;92.30;;;;;;7286928;19;20190;-81
2024/01/18 11:38:19;;;;;;;22.77;14.53;;;17.60;92.10;;;;;;7282663;19;20189;-80
2024/01/18 11:40:46;;;;;;;22.10;14.83;;;17.90;90.90;;;;;;7286285;19;20218;-80
2024/01/18 11:43:12;;;;;;;22.87;13.80;;;18.00;90.70;;;;;;7284284;19;20193;-80
2024/01/18 11:45:38;;;;;;;18.73;12.20;;;18.20;88.90;;;;;;7285387;19;20676;-80
2024/01/18 11:48:04;;;;;;;20.67;12.97;;;17.90;88.70;;;;;;7286276;19;20185;-79
2024/01/18 11:50:30;;;;;;;21.57;13.87;;;17.70;87.80;;;;;;7306362;19;20775;-78
2024/01/18 11:52:56;;;;;;;21.63;13.00;;;17.80;87.90;;;;;;7293013;19;20292;-81
2024/01/18 11:55:24;;;;;;;24.23;17.10;;;17.80;87.40;;;;;;7284366;19;20203;-79
2024/01/18 11:57:52;;;;;;;18.53;13.20;;;17.70;88.30;;;;;;7288815;19;20197;-80
2024/01/18 12:00:19;;;;;;;21.67;13.53;;;17.80;87.80;;;;;;7286702;19;20197;-80
2024/01/18 12:02:45;;;;;;;24.17;14.40;;;17.90;87.20;;;;;;7285584;19;20183;-79
2024/01/18 12:05:11;;;;;;;17.93;11.70;;;17.90;86.50;;;;;;7285421;19;20198;-79
2024/01/18 12:07:38;;;;;;;19.57;12.17;;;17.90;87.40;;;;;;7286486;19;20191;-80
2024/01/18 12:10:06;;;;;;;18.17;10.97;;;17.80;87.00;;;;;;7285280;19;20250;-79
2024/01/18 12:12:32;;;;;;;21.77;11.93;;;18.00;85.10;;;;;;7288139;19;20196;-79
2024/01/18 12:14:59;;;;;;;18.47;11.60;;;17.90;86.00;;;;;;7308971;19;20947;-79
2024/01/18 12:17:26;;;;;;;17.50;11.57;;;17.70;87.20;;;;;;7285381;19;20201;-79
2024/01/18 12:19:52;;;;;;;17.83;11.07;;;17.80;86.30;;;;;;7286344;19;20704;-79
2024/01/18 12:22:19;;;;;;;20.97;11.00;;;17.60;87.10;;;;;;7284482;19;20201;-81
2024/01/18 12:24:47;;;;;;;15.30;9.90;;;17.60;86.20;;;;;;7285048;19;20210;-79
2024/01/18 12:27:14;;;;;;;13.47;8.63;;;17.40;86.90;;;;;;7282564;19;20266;-79
2024/01/18 12:29:40;;;;;;;15.27;10.43;;;17.30;87.20;;;;;;7283479;19;21078;-78